sensor_id;sensor_type;location;lat;lon;timestamp;temperature;humidity
10083;DHT22;5080;48.528;8.078;2024-01-15T00:00:51;0.00;99.90
10083;DHT22;5080;48.528;8.078;2024-01-15T00:03:18;0.00;99.90
10083;DHT22;5080;48.528;8.078;2024-01-15T00:05:46;0.00;99.90
10083;DHT22;5080;48.528;8.078;2024-01-15T00:08:13;0.00;99.90
10083;DHT22;5080;48.528;8.078;2024-01-15T00:10:39;0.00;99.90
10083;DHT22;5080;48.528;8.078;2024-01-15T00:13:06;0.10;99.90
10083;DHT22;5080;48.528;8.078;2024-01-15T00:15:33;0.10;99.90
10083;DHT22;5080;48.528;8.078;2024-01-15T00:18:00;0.10;99.90
10083;DHT22;5080;48.528;8.078;2024-01-15T00:20:27;0.00;99.90
10083;DHT22;5080;48.528;8.078;2024-01-15T00:22:55;0.00;99.90
10083;DHT22;5080;48.528;8.078;2024-01-15T00:25:21;0.00;99.90
10083;DHT22;5080;48.528;8.078;2024-01-15T00:27:49;0.00;99.90
10083;DHT22;5080;48.528;8.078;2024-01-15T00:30:16;0.00;99.90
10083;DHT22;5080;48.528;8.078;2024-01-15T00:32:42;0.10;99.90
10083;DHT22;5080;48.528;8.078;2024-01-15T00:35:09;0.10;99.90
10083;DHT22;5080;48.528;8.078;2024-01-15T00:37:36;0.10;99.90
10083;DHT22;5080;48.528;8.078;2024-01-15T00:40:05;0.20;99.90
10083;DHT22;5080;48.528;8.078;2024-01-15T00:42:33;0.20;99.90
10083;DHT22;5080;48.528;8.078;2024-01-15T00:45:00;0.10;99.90
10083;DHT22;5080;48.528;8.078;2024-01-15T00:47:26;0.20;99.90
10083;DHT22;5080;48.528;8.078;2024-01-15T00:49:53;0.20;99.90
10083;DHT22;5080;48.528;8.078;2024-01-15T00:52:20;0.30;99.90
10083;DHT22;5080;48.528;8.078;2024-01-15T00:54:46;0.30;99.90
10083;DHT22;5080;48.528;8.078;2024-01-15T00:57:14;0.30;99.90
10083;DHT22;5080;48.528;8.078;2024-01-15T00:59:41;0.40;99.90
10083;DHT22;5080;48.528;8.078;2024-01-15T01:02:08;0.40;99.90
10083;DHT22;5080;48.528;8.078;2024-01-15T01:04:34;0.40;99.90
10083;DHT22;5080;48.528;8.078;2024-01-15T01:07:01;0.40;99.90
10083;DHT22;5080;48.528;8.078;2024-01-15T01:09:28;0.40;99.90
10083;DHT22;5080;48.528;8.078;2024-01-15T01:11:55;0.40;99.90
10083;DHT22;5080;48.528;8.078;2024-01-15T01:14:23;0.40;99.90
10083;DHT22;5080;48.528;8.078;2024-01-15T01:16:50;0.40;99.90
10083;DHT22;5080;48.528;8.078;2024-01-15T01:19:17;0.50;99.90
10083;DHT22;5080;48.528;8.078;2024-01-15T01:21:43;0.40;99.90
10083;DHT22;5080;48.528;8.078;2024-01-15T01:24:10;0.50;99.90
10083;DHT22;5080;48.528;8.078;2024-01-15T01:26:37;0.50;99.90
10083;DHT22;5080;48.528;8.078;2024-01-15T01:29:03;0.60;99.90
10083;DHT22;5080;48.528;8.078;2024-01-15T01:31:31;0.60;99.90
10083;DHT22;5080;48.528;8.078;2024-01-15T01:33:58;0.60;99.90
10083;DHT22;5080;48.528;8.078;2024-01-15T01:36:25;0.60;99.90
10083;DHT22;5080;48.528;8.078;2024-01-15T01:38:52;0.50;99.90
10083;DHT22;5080;48.528;8.078;2024-01-15T01:41:18;0.60;99.90
10083;DHT22;5080;48.528;8.078;2024-01-15T01:43:45;0.60;99.90
10083;DHT22;5080;48.528;8.078;2024-01-15T01:46:12;0.50;99.90
10083;DHT22;5080;48.528;8.078;2024-01-15T01:48:40;0.60;99.90
10083;DHT22;5080;48.528;8.078;2024-01-15T01:51:07;0.70;99.90
10083;DHT22;5080;48.528;8.078;2024-01-15T01:53:35;0.70;99.90
10083;DHT22;5080;48.528;8.078;2024-01-15T01:56:04;0.80;99.90
10083;DHT22;5080;48.528;8.078;2024-01-15T01:58:32;0.80;99.90
10083;DHT22;5080;48.528;8.078;2024-01-15T02:00:59;0.80;99.90
10083;DHT22;5080;48.528;8.078;2024-01-15T02:03:27;0.80;99.90
10083;DHT22;5080;48.528;8.078;2024-01-15T02:05:55;0.90;99.90
10083;DHT22;5080;48.528;8.078;2024-01-15T02:08:22;0.90;99.90
10083;DHT22;5080;48.528;8.078;2024-01-15T02:10:49;1.00;99.90
10083;DHT22;5080;48.528;8.078;2024-01-15T02:13:16;1.00;99.90
10083;DHT22;5080;48.528;8.078;2024-01-15T02:15:43;1.00;99.90
10083;DHT22;5080;48.528;8.078;2024-01-15T02:18:10;1.00;99.90
10083;DHT22;5080;48.528;8.078;2024-01-15T02:20:37;1.00;99.90
10083;DHT22;5080;48.528;8.078;2024-01-15T02:23:08;1.00;99.90
10083;DHT22;5080;48.528;8.078;2024-01-15T02:25:37;1.00;99.90
10083;DHT22;5080;48.528;8.078;2024-01-15T02:28:04;1.00;99.90
10083;DHT22;5080;48.528;8.078;2024-01-15T02:30:32;1.00;99.90
10083;DHT22;5080;48.528;8.078;2024-01-15T02:32:59;1.00;99.90
10083;DHT22;5080;48.528;8.078;2024-01-15T02:35:25;1.00;99.90
10083;DHT22;5080;48.528;8.078;2024-01-15T02:37:52;1.00;99.90
10083;DHT22;5080;48.528;8.078;2024-01-15T02:40:20;1.00;99.90
10083;DHT22;5080;48.528;8.078;2024-01-15T02:42:47;0.90;99.90
10083;DHT22;5080;48.528;8.078;2024-01-15T02:45:14;0.90;99.90
10083;DHT22;5080;48.528;8.078;2024-01-15T02:47:40;0.90;99.90
10083;DHT22;5080;48.528;8.078;2024-01-15T02:50:07;0.90;99.90
10083;DHT22;5080;48.528;8.078;2024-01-15T02:52:34;0.90;99.90
10083;DHT22;5080;48.528;8.078;2024-01-15T02:55:00;0.90;99.90
10083;DHT22;5080;48.528;8.078;2024-01-15T02:57:28;0.90;99.90
10083;DHT22;5080;48.528;8.078;2024-01-15T02:59:55;0.80;99.90
10083;DHT22;5080;48.528;8.078;2024-01-15T03:02:22;0.80;99.90
10083;DHT22;5080;48.528;8.078;2024-01-15T03:04:49;0.90;99.90
10083;DHT22;5080;48.528;8.078;2024-01-15T03:07:16;0.90;99.90
10083;DHT22;5080;48.528;8.078;2024-01-15T03:09:42;0.90;99.90
10083;DHT22;5080;48.528;8.078;2024-01-15T03:12:09;0.90;99.90
10083;DHT22;5080;48.528;8.078;2024-01-15T03:14:37;0.90;99.90
10083;DHT22;5080;48.528;8.078;2024-01-15T03:17:04;0.90;99.90
10083;DHT22;5080;48.528;8.078;2024-01-15T03:19:34;0.90;99.90
10083;DHT22;5080;48.528;8.078;2024-01-15T03:22:01;0.90;99.90
10083;DHT22;5080;48.528;8.078;2024-01-15T03:24:29;0.90;99.90
10083;DHT22;5080;48.528;8.078;2024-01-15T03:26:55;0.90;99.90
10083;DHT22;5080;48.528;8.078;2024-01-15T03:29:22;0.90;99.90
10083;DHT22;5080;48.528;8.078;2024-01-15T03:31:50;0.80;99.90
10083;DHT22;5080;48.528;8.078;2024-01-15T03:34:17;0.80;99.90
10083;DHT22;5080;48.528;8.078;2024-01-15T03:36:44;0.90;99.90
10083;DHT22;5080;48.528;8.078;2024-01-15T03:39:10;0.80;99.90
10083;DHT22;5080;48.528;8.078;2024-01-15T03:41:37;0.90;99.90
10083;DHT22;5080;48.528;8.078;2024-01-15T03:44:04;0.90;99.90
10083;DHT22;5080;48.528;8.078;2024-01-15T03:46:31;1.00;99.90
10083;DHT22;5080;48.528;8.078;2024-01-15T03:48:59;1.00;99.90
10083;DHT22;5080;48.528;8.078;2024-01-15T03:51:26;1.00;99.90
10083;DHT22;5080;48.528;8.078;2024-01-15T03:53:52;1.10;99.90
10083;DHT22;5080;48.528;8.078;2024-01-15T03:56:19;1.20;99.90
10083;DHT22;5080;48.528;8.078;2024-01-15T03:58:46;1.10;99.90
10083;DHT22;5080;48.528;8.078;2024-01-15T04:01:12;1.10;99.90
10083;DHT22;5080;48.528;8.078;2024-01-15T04:03:39;1.10;99.90
10083;DHT22;5080;48.528;8.078;2024-01-15T04:06:07;1.00;99.90
10083;DHT22;5080;48.528;8.078;2024-01-15T04:08:34;1.00;99.90
10083;DHT22;5080;48.528;8.078;2024-01-15T04:11:01;1.10;99.90
10083;DHT22;5080;48.528;8.078;2024-01-15T04:13:28;1.00;99.90
10083;DHT22;5080;48.528;8.078;2024-01-15T04:15:54;1.10;99.90
10083;DHT22;5080;48.528;8.078;2024-01-15T04:18:21;1.00;99.90
10083;DHT22;5080;48.528;8.078;2024-01-15T04:20:48;1.10;99.90
10083;DHT22;5080;48.528;8.078;2024-01-15T04:23:16;1.10;99.90
10083;DHT22;5080;48.528;8.078;2024-01-15T04:25:43;1.20;99.90
10083;DHT22;5080;48.528;8.078;2024-01-15T04:28:11;1.20;99.90
10083;DHT22;5080;48.528;8.078;2024-01-15T04:30:38;1.20;99.90
10083;DHT22;5080;48.528;8.078;2024-01-15T04:33:04;1.20;99.90
10083;DHT22;5080;48.528;8.078;2024-01-15T04:35:32;1.20;99.90
10083;DHT22;5080;48.528;8.078;2024-01-15T04:37:59;1.30;99.90
10083;DHT22;5080;48.528;8.078;2024-01-15T04:40:27;1.30;99.90
10083;DHT22;5080;48.528;8.078;2024-01-15T04:42:54;1.20;99.90
10083;DHT22;5080;48.528;8.078;2024-01-15T04:45:21;1.30;99.90
10083;DHT22;5080;48.528;8.078;2024-01-15T04:47:48;1.30;99.90
10083;DHT22;5080;48.528;8.078;2024-01-15T04:50:15;1.30;99.90
10083;DHT22;5080;48.528;8.078;2024-01-15T04:52:42;1.40;99.90
10083;DHT22;5080;48.528;8.078;2024-01-15T04:55:08;1.40;99.90
10083;DHT22;5080;48.528;8.078;2024-01-15T04:57:36;1.50;99.90
10083;DHT22;5080;48.528;8.078;2024-01-15T05:00:04;1.50;99.90
10083;DHT22;5080;48.528;8.078;2024-01-15T05:02:31;1.50;99.90
10083;DHT22;5080;48.528;8.078;2024-01-15T05:04:58;1.50;99.90
10083;DHT22;5080;48.528;8.078;2024-01-15T05:07:24;1.50;99.90
10083;DHT22;5080;48.528;8.078;2024-01-15T05:09:51;1.60;99.90
10083;DHT22;5080;48.528;8.078;2024-01-15T05:12:18;1.50;99.90
10083;DHT22;5080;48.528;8.078;2024-01-15T05:14:46;1.50;99.90
10083;DHT22;5080;48.528;8.078;2024-01-15T05:17:13;1.50;99.90
10083;DHT22;5080;48.528;8.078;2024-01-15T05:19:39;1.60;99.90
10083;DHT22;5080;48.528;8.078;2024-01-15T05:22:06;1.50;99.90
10083;DHT22;5080;48.528;8.078;2024-01-15T05:24:33;1.50;99.90
10083;DHT22;5080;48.528;8.078;2024-01-15T05:26:59;1.50;99.90
10083;DHT22;5080;48.528;8.078;2024-01-15T05:29:26;1.50;99.90
10083;DHT22;5080;48.528;8.078;2024-01-15T05:31:54;1.50;99.90
10083;DHT22;5080;48.528;8.078;2024-01-15T05:34:21;1.50;99.90
10083;DHT22;5080;48.528;8.078;2024-01-15T05:36:48;1.40;99.90
10083;DHT22;5080;48.528;8.078;2024-01-15T05:39:14;1.50;99.90
10083;DHT22;5080;48.528;8.078;2024-01-15T05:41:41;1.60;99.90
10083;DHT22;5080;48.528;8.078;2024-01-15T05:44:08;1.60;99.90
10083;DHT22;5080;48.528;8.078;2024-01-15T05:46:35;1.60;99.90
10083;DHT22;5080;48.528;8.078;2024-01-15T05:49:03;1.60;99.90
10083;DHT22;5080;48.528;8.078;2024-01-15T05:51:30;1.60;99.90
10083;DHT22;5080;48.528;8.078;2024-01-15T05:53:56;1.70;99.90
10083;DHT22;5080;48.528;8.078;2024-01-15T05:56:23;1.70;99.90
10083;DHT22;5080;48.528;8.078;2024-01-15T05:58:52;1.70;99.90
10083;DHT22;5080;48.528;8.078;2024-01-15T06:01:18;1.70;99.90
10083;DHT22;5080;48.528;8.078;2024-01-15T06:03:46;1.70;99.90
10083;DHT22;5080;48.528;8.078;2024-01-15T06:06:14;1.70;99.90
10083;DHT22;5080;48.528;8.078;2024-01-15T06:08:41;1.60;99.90
10083;DHT22;5080;48.528;8.078;2024-01-15T06:11:07;1.60;99.90
10083;DHT22;5080;48.528;8.078;2024-01-15T06:13:34;1.60;99.90
10083;DHT22;5080;48.528;8.078;2024-01-15T06:16:01;1.70;99.90
10083;DHT22;5080;48.528;8.078;2024-01-15T06:18:27;1.70;99.90
10083;DHT22;5080;48.528;8.078;2024-01-15T06:20:54;1.80;99.90
10083;DHT22;5080;48.528;8.078;2024-01-15T06:23:22;1.80;99.90
10083;DHT22;5080;48.528;8.078;2024-01-15T06:25:49;1.80;99.90
10083;DHT22;5080;48.528;8.078;2024-01-15T06:28:16;1.90;99.90
10083;DHT22;5080;48.528;8.078;2024-01-15T06:30:42;1.90;99.90
10083;DHT22;5080;48.528;8.078;2024-01-15T06:33:09;1.90;99.90
10083;DHT22;5080;48.528;8.078;2024-01-15T06:35:36;1.90;99.90
10083;DHT22;5080;48.528;8.078;2024-01-15T06:38:03;2.00;99.90
10083;DHT22;5080;48.528;8.078;2024-01-15T06:40:31;2.00;99.90
10083;DHT22;5080;48.528;8.078;2024-01-15T06:42:58;1.90;99.90
10083;DHT22;5080;48.528;8.078;2024-01-15T06:45:24;1.90;99.90
10083;DHT22;5080;48.528;8.078;2024-01-15T06:47:51;1.90;99.90
10083;DHT22;5080;48.528;8.078;2024-01-15T06:50:18;1.90;99.90
10083;DHT22;5080;48.528;8.078;2024-01-15T06:52:45;1.90;99.90
10083;DHT22;5080;48.528;8.078;2024-01-15T06:55:12;1.90;99.90
10083;DHT22;5080;48.528;8.078;2024-01-15T06:57:40;1.90;99.90
10083;DHT22;5080;48.528;8.078;2024-01-15T07:00:07;1.90;99.90
10083;DHT22;5080;48.528;8.078;2024-01-15T07:02:34;1.90;99.90
10083;DHT22;5080;48.528;8.078;2024-01-15T07:05:01;1.90;99.90
10083;DHT22;5080;48.528;8.078;2024-01-15T07:07:30;1.90;99.90
10083;DHT22;5080;48.528;8.078;2024-01-15T07:09:57;1.90;99.90
10083;DHT22;5080;48.528;8.078;2024-01-15T07:12:23;1.90;99.90
10083;DHT22;5080;48.528;8.078;2024-01-15T07:14:52;1.90;99.90
10083;DHT22;5080;48.528;8.078;2024-01-15T07:17:18;1.90;99.90
10083;DHT22;5080;48.528;8.078;2024-01-15T07:19:45;1.90;99.90
10083;DHT22;5080;48.528;8.078;2024-01-15T07:22:12;1.90;99.90
10083;DHT22;5080;48.528;8.078;2024-01-15T07:24:38;1.90;99.90
10083;DHT22;5080;48.528;8.078;2024-01-15T07:27:06;1.80;99.90
10083;DHT22;5080;48.528;8.078;2024-01-15T07:29:34;1.90;99.90
10083;DHT22;5080;48.528;8.078;2024-01-15T07:32:04;1.80;99.90
10083;DHT22;5080;48.528;8.078;2024-01-15T07:34:33;1.90;99.90
10083;DHT22;5080;48.528;8.078;2024-01-15T07:36:59;1.80;99.90
10083;DHT22;5080;48.528;8.078;2024-01-15T07:39:26;1.90;99.90
10083;DHT22;5080;48.528;8.078;2024-01-15T07:41:54;1.90;99.90
10083;DHT22;5080;48.528;8.078;2024-01-15T07:44:21;1.90;99.90
10083;DHT22;5080;48.528;8.078;2024-01-15T07:46:48;1.90;99.90
10083;DHT22;5080;48.528;8.078;2024-01-15T07:49:16;2.00;99.90
10083;DHT22;5080;48.528;8.078;2024-01-15T07:51:43;2.00;99.90
10083;DHT22;5080;48.528;8.078;2024-01-15T07:54:10;2.00;99.90
10083;DHT22;5080;48.528;8.078;2024-01-15T07:56:55;2.00;99.90
10083;DHT22;5080;48.528;8.078;2024-01-15T07:59:22;2.00;99.90
10083;DHT22;5080;48.528;8.078;2024-01-15T08:01:49;2.10;99.90
10083;DHT22;5080;48.528;8.078;2024-01-15T08:04:17;2.00;99.90
10083;DHT22;5080;48.528;8.078;2024-01-15T08:06:44;2.10;99.90
10083;DHT22;5080;48.528;8.078;2024-01-15T08:09:11;2.10;99.90
10083;DHT22;5080;48.528;8.078;2024-01-15T08:11:39;2.10;99.90
10083;DHT22;5080;48.528;8.078;2024-01-15T08:14:07;2.10;99.90
10083;DHT22;5080;48.528;8.078;2024-01-15T08:16:33;2.10;99.90
10083;DHT22;5080;48.528;8.078;2024-01-15T08:19:00;2.00;99.90
10083;DHT22;5080;48.528;8.078;2024-01-15T08:21:28;2.00;99.90
10083;DHT22;5080;48.528;8.078;2024-01-15T08:23:56;2.00;99.90
10083;DHT22;5080;48.528;8.078;2024-01-15T08:26:22;2.10;99.90
10083;DHT22;5080;48.528;8.078;2024-01-15T08:28:49;2.20;99.90
10083;DHT22;5080;48.528;8.078;2024-01-15T08:31:16;2.20;99.90
10083;DHT22;5080;48.528;8.078;2024-01-15T08:33:43;2.10;99.90
10083;DHT22;5080;48.528;8.078;2024-01-15T08:36:10;2.10;99.90
10083;DHT22;5080;48.528;8.078;2024-01-15T08:38:38;2.10;99.90
10083;DHT22;5080;48.528;8.078;2024-01-15T08:41:05;2.10;99.90
10083;DHT22;5080;48.528;8.078;2024-01-15T08:43:33;2.10;99.90
10083;DHT22;5080;48.528;8.078;2024-01-15T08:46:00;2.10;99.90
10083;DHT22;5080;48.528;8.078;2024-01-15T08:48:28;2.00;99.90
10083;DHT22;5080;48.528;8.078;2024-01-15T08:50:55;2.00;99.90
10083;DHT22;5080;48.528;8.078;2024-01-15T08:53:22;2.00;99.90
10083;DHT22;5080;48.528;8.078;2024-01-15T08:55:50;1.90;99.90
10083;DHT22;5080;48.528;8.078;2024-01-15T08:58:17;1.90;99.90
10083;DHT22;5080;48.528;8.078;2024-01-15T09:00:44;1.90;99.90
10083;DHT22;5080;48.528;8.078;2024-01-15T09:03:11;1.90;99.90
10083;DHT22;5080;48.528;8.078;2024-01-15T09:05:37;1.90;99.90
10083;DHT22;5080;48.528;8.078;2024-01-15T09:08:04;2.00;99.90
10083;DHT22;5080;48.528;8.078;2024-01-15T09:10:31;2.00;99.90
10083;DHT22;5080;48.528;8.078;2024-01-15T09:12:59;1.90;99.90
10083;DHT22;5080;48.528;8.078;2024-01-15T09:15:26;2.00;99.90
10083;DHT22;5080;48.528;8.078;2024-01-15T09:17:53;2.00;99.90
10083;DHT22;5080;48.528;8.078;2024-01-15T09:20:20;2.10;99.90
10083;DHT22;5080;48.528;8.078;2024-01-15T09:22:46;2.20;99.90
10083;DHT22;5080;48.528;8.078;2024-01-15T09:25:13;2.10;99.90
10083;DHT22;5080;48.528;8.078;2024-01-15T09:27:40;2.10;99.90
10083;DHT22;5080;48.528;8.078;2024-01-15T09:30:09;2.10;99.90
10083;DHT22;5080;48.528;8.078;2024-01-15T09:32:36;2.20;99.90
10083;DHT22;5080;48.528;8.078;2024-01-15T09:35:04;2.40;99.90
10083;DHT22;5080;48.528;8.078;2024-01-15T09:37:31;2.50;99.90
10083;DHT22;5080;48.528;8.078;2024-01-15T09:39:58;2.50;99.90
10083;DHT22;5080;48.528;8.078;2024-01-15T09:42:25;2.50;99.90
10083;DHT22;5080;48.528;8.078;2024-01-15T09:44:52;2.50;99.90
10083;DHT22;5080;48.528;8.078;2024-01-15T09:47:20;2.60;99.90
10083;DHT22;5080;48.528;8.078;2024-01-15T09:49:48;2.60;99.90
10083;DHT22;5080;48.528;8.078;2024-01-15T09:52:16;2.60;99.90
10083;DHT22;5080;48.528;8.078;2024-01-15T09:54:46;2.70;99.90
10083;DHT22;5080;48.528;8.078;2024-01-15T09:57:12;2.70;99.90
10083;DHT22;5080;48.528;8.078;2024-01-15T09:59:40;2.80;99.90
10083;DHT22;5080;48.528;8.078;2024-01-15T10:02:10;2.80;99.90
10083;DHT22;5080;48.528;8.078;2024-01-15T10:04:42;2.80;99.90
10083;DHT22;5080;48.528;8.078;2024-01-15T10:07:11;2.80;99.90
10083;DHT22;5080;48.528;8.078;2024-01-15T10:09:41;2.90;99.90
10083;DHT22;5080;48.528;8.078;2024-01-15T10:12:09;2.90;99.90
10083;DHT22;5080;48.528;8.078;2024-01-15T10:14:35;2.90;99.90
10083;DHT22;5080;48.528;8.078;2024-01-15T10:17:12;3.00;99.90
10083;DHT22;5080;48.528;8.078;2024-01-15T10:19:38;2.90;99.90
10083;DHT22;5080;48.528;8.078;2024-01-15T10:22:08;3.00;99.90
10083;DHT22;5080;48.528;8.078;2024-01-15T10:24:36;3.00;99.90
10083;DHT22;5080;48.528;8.078;2024-01-15T10:27:06;3.00;99.90
10083;DHT22;5080;48.528;8.078;2024-01-15T10:29:33;3.00;99.90
10083;DHT22;5080;48.528;8.078;2024-01-15T10:32:00;3.00;99.90
10083;DHT22;5080;48.528;8.078;2024-01-15T10:34:28;3.10;99.90
10083;DHT22;5080;48.528;8.078;2024-01-15T10:36:54;3.10;99.90
10083;DHT22;5080;48.528;8.078;2024-01-15T10:39:23;3.10;99.90
10083;DHT22;5080;48.528;8.078;2024-01-15T10:41:50;3.10;99.90
10083;DHT22;5080;48.528;8.078;2024-01-15T10:44:17;3.00;99.90
10083;DHT22;5080;48.528;8.078;2024-01-15T10:46:45;3.10;99.90
10083;DHT22;5080;48.528;8.078;2024-01-15T10:49:12;3.10;99.90
10083;DHT22;5080;48.528;8.078;2024-01-15T10:51:40;3.10;99.90
10083;DHT22;5080;48.528;8.078;2024-01-15T10:54:09;3.10;99.90
10083;DHT22;5080;48.528;8.078;2024-01-15T10:56:39;3.10;99.90
10083;DHT22;5080;48.528;8.078;2024-01-15T10:59:06;3.20;99.90
10083;DHT22;5080;48.528;8.078;2024-01-15T11:01:36;3.20;99.90
10083;DHT22;5080;48.528;8.078;2024-01-15T11:04:04;3.20;99.90
10083;DHT22;5080;48.528;8.078;2024-01-15T11:06:42;3.30;99.90
10083;DHT22;5080;48.528;8.078;2024-01-15T11:09:09;3.30;99.90
10083;DHT22;5080;48.528;8.078;2024-01-15T11:11:35;3.30;99.90
10083;DHT22;5080;48.528;8.078;2024-01-15T11:14:04;3.30;99.90
10083;DHT22;5080;48.528;8.078;2024-01-15T11:16:56;3.30;99.90
10083;DHT22;5080;48.528;8.078;2024-01-15T11:19:24;3.20;99.90
10083;DHT22;5080;48.528;8.078;2024-01-15T11:21:53;3.20;99.90
10083;DHT22;5080;48.528;8.078;2024-01-15T11:24:36;3.20;99.90
10083;DHT22;5080;48.528;8.078;2024-01-15T11:27:04;3.10;99.90
10083;DHT22;5080;48.528;8.078;2024-01-15T11:29:34;3.10;99.90
10083;DHT22;5080;48.528;8.078;2024-01-15T11:32:03;3.10;99.90
10083;DHT22;5080;48.528;8.078;2024-01-15T11:34:50;3.20;99.90
10083;DHT22;5080;48.528;8.078;2024-01-15T11:37:17;3.10;99.90
10083;DHT22;5080;48.528;8.078;2024-01-15T11:39:44;3.20;99.90
10083;DHT22;5080;48.528;8.078;2024-01-15T11:42:12;3.20;99.90
10083;DHT22;5080;48.528;8.078;2024-01-15T11:44:41;3.10;99.90
10083;DHT22;5080;48.528;8.078;2024-01-15T11:47:09;3.20;99.90
10083;DHT22;5080;48.528;8.078;2024-01-15T11:49:59;3.20;99.90
10083;DHT22;5080;48.528;8.078;2024-01-15T11:52:31;3.20;99.90
10083;DHT22;5080;48.528;8.078;2024-01-15T11:55:01;3.20;99.90
10083;DHT22;5080;48.528;8.078;2024-01-15T11:57:40;3.20;99.90
10083;DHT22;5080;48.528;8.078;2024-01-15T12:00:11;3.20;99.90
10083;DHT22;5080;48.528;8.078;2024-01-15T12:02:39;3.10;99.90
10083;DHT22;5080;48.528;8.078;2024-01-15T12:05:07;3.00;99.90
10083;DHT22;5080;48.528;8.078;2024-01-15T12:07:34;3.00;99.90
10083;DHT22;5080;48.528;8.078;2024-01-15T12:10:01;3.00;99.90
10083;DHT22;5080;48.528;8.078;2024-01-15T12:12:37;3.00;99.90
10083;DHT22;5080;48.528;8.078;2024-01-15T12:15:06;3.00;99.90
10083;DHT22;5080;48.528;8.078;2024-01-15T12:17:35;3.10;99.90
10083;DHT22;5080;48.528;8.078;2024-01-15T12:20:02;3.10;99.90
10083;DHT22;5080;48.528;8.078;2024-01-15T12:22:29;3.00;99.90
10083;DHT22;5080;48.528;8.078;2024-01-15T12:24:55;3.00;99.90
10083;DHT22;5080;48.528;8.078;2024-01-15T12:27:23;2.90;99.90
10083;DHT22;5080;48.528;8.078;2024-01-15T12:29:50;2.90;99.90
10083;DHT22;5080;48.528;8.078;2024-01-15T12:32:18;2.90;99.90
10083;DHT22;5080;48.528;8.078;2024-01-15T12:34:48;2.90;99.90
10083;DHT22;5080;48.528;8.078;2024-01-15T12:37:18;2.90;99.90
10083;DHT22;5080;48.528;8.078;2024-01-15T12:39:44;2.90;99.90
10083;DHT22;5080;48.528;8.078;2024-01-15T12:42:11;2.90;99.90
10083;DHT22;5080;48.528;8.078;2024-01-15T12:44:39;2.90;99.90
10083;DHT22;5080;48.528;8.078;2024-01-15T12:47:06;2.80;99.90
10083;DHT22;5080;48.528;8.078;2024-01-15T12:49:33;2.90;99.90
10083;DHT22;5080;48.528;8.078;2024-01-15T12:52:01;2.80;99.90
10083;DHT22;5080;48.528;8.078;2024-01-15T12:54:27;2.80;99.90
10083;DHT22;5080;48.528;8.078;2024-01-15T12:56:54;2.80;99.90
10083;DHT22;5080;48.528;8.078;2024-01-15T12:59:21;2.80;99.90
10083;DHT22;5080;48.528;8.078;2024-01-15T13:01:48;2.80;99.90
10083;DHT22;5080;48.528;8.078;2024-01-15T13:04:21;2.80;99.90
10083;DHT22;5080;48.528;8.078;2024-01-15T13:06:49;2.80;99.90
10083;DHT22;5080;48.528;8.078;2024-01-15T13:09:17;2.80;99.90
10083;DHT22;5080;48.528;8.078;2024-01-15T13:11:44;2.90;99.90
10083;DHT22;5080;48.528;8.078;2024-01-15T13:14:11;2.90;99.90
10083;DHT22;5080;48.528;8.078;2024-01-15T13:16:39;3.00;99.90
10083;DHT22;5080;48.528;8.078;2024-01-15T13:19:07;3.00;99.90
10083;DHT22;5080;48.528;8.078;2024-01-15T13:21:33;3.00;99.90
10083;DHT22;5080;48.528;8.078;2024-01-15T13:24:00;2.90;99.90
10083;DHT22;5080;48.528;8.078;2024-01-15T13:26:30;2.90;99.90
10083;DHT22;5080;48.528;8.078;2024-01-15T13:28:56;2.80;99.90
10083;DHT22;5080;48.528;8.078;2024-01-15T13:31:23;2.90;99.90
10083;DHT22;5080;48.528;8.078;2024-01-15T13:33:50;2.90;99.90
10083;DHT22;5080;48.528;8.078;2024-01-15T13:36:17;2.90;99.90
10083;DHT22;5080;48.528;8.078;2024-01-15T13:38:44;2.90;99.90
10083;DHT22;5080;48.528;8.078;2024-01-15T13:41:10;2.90;99.90
10083;DHT22;5080;48.528;8.078;2024-01-15T13:43:39;2.90;99.90
10083;DHT22;5080;48.528;8.078;2024-01-15T13:46:06;2.80;99.90
10083;DHT22;5080;48.528;8.078;2024-01-15T13:48:33;2.80;99.90
10083;DHT22;5080;48.528;8.078;2024-01-15T13:50:59;2.80;99.90
10083;DHT22;5080;48.528;8.078;2024-01-15T13:53:26;2.70;99.90
10083;DHT22;5080;48.528;8.078;2024-01-15T13:55:53;2.70;99.90
10083;DHT22;5080;48.528;8.078;2024-01-15T13:58:19;2.60;99.90
10083;DHT22;5080;48.528;8.078;2024-01-15T14:00:48;2.60;99.90
10083;DHT22;5080;48.528;8.078;2024-01-15T14:03:15;2.60;99.90
10083;DHT22;5080;48.528;8.078;2024-01-15T14:05:42;2.40;99.90
10083;DHT22;5080;48.528;8.078;2024-01-15T14:08:09;2.40;99.90
10083;DHT22;5080;48.528;8.078;2024-01-15T14:10:35;2.20;99.90
10083;DHT22;5080;48.528;8.078;2024-01-15T14:13:03;2.20;99.90
10083;DHT22;5080;48.528;8.078;2024-01-15T14:15:29;2.20;99.90
10083;DHT22;5080;48.528;8.078;2024-01-15T14:17:57;2.20;99.90
10083;DHT22;5080;48.528;8.078;2024-01-15T14:20:25;2.20;99.90
10083;DHT22;5080;48.528;8.078;2024-01-15T14:22:51;2.10;99.90
10083;DHT22;5080;48.528;8.078;2024-01-15T14:25:18;2.10;99.90
10083;DHT22;5080;48.528;8.078;2024-01-15T14:27:45;2.20;99.90
10083;DHT22;5080;48.528;8.078;2024-01-15T14:30:13;2.30;99.90
10083;DHT22;5080;48.528;8.078;2024-01-15T14:32:41;2.30;99.90
10083;DHT22;5080;48.528;8.078;2024-01-15T14:35:09;2.30;99.90
10083;DHT22;5080;48.528;8.078;2024-01-15T14:37:37;2.40;99.90
10083;DHT22;5080;48.528;8.078;2024-01-15T14:40:04;2.30;99.90
10083;DHT22;5080;48.528;8.078;2024-01-15T14:42:33;2.20;99.90
10083;DHT22;5080;48.528;8.078;2024-01-15T14:45:00;2.30;99.90
10083;DHT22;5080;48.528;8.078;2024-01-15T14:47:28;2.20;99.90
10083;DHT22;5080;48.528;8.078;2024-01-15T14:49:54;2.20;99.90
10083;DHT22;5080;48.528;8.078;2024-01-15T14:52:23;2.20;99.90
10083;DHT22;5080;48.528;8.078;2024-01-15T14:54:50;2.20;99.90
10083;DHT22;5080;48.528;8.078;2024-01-15T14:57:17;2.30;99.90
10083;DHT22;5080;48.528;8.078;2024-01-15T14:59:43;2.30;99.90
10083;DHT22;5080;48.528;8.078;2024-01-15T15:02:10;2.30;99.90
10083;DHT22;5080;48.528;8.078;2024-01-15T15:04:37;2.30;99.90
10083;DHT22;5080;48.528;8.078;2024-01-15T15:07:04;2.30;99.90
10083;DHT22;5080;48.528;8.078;2024-01-15T15:09:33;2.20;99.90
10083;DHT22;5080;48.528;8.078;2024-01-15T15:11:59;2.20;99.90
10083;DHT22;5080;48.528;8.078;2024-01-15T15:14:28;2.20;99.90
10083;DHT22;5080;48.528;8.078;2024-01-15T15:16:54;2.20;99.90
10083;DHT22;5080;48.528;8.078;2024-01-15T15:19:21;2.30;99.90
10083;DHT22;5080;48.528;8.078;2024-01-15T15:21:48;2.30;99.90
10083;DHT22;5080;48.528;8.078;2024-01-15T15:24:15;2.40;99.90
10083;DHT22;5080;48.528;8.078;2024-01-15T15:26:43;2.40;99.90
10083;DHT22;5080;48.528;8.078;2024-01-15T15:29:10;2.40;99.90
10083;DHT22;5080;48.528;8.078;2024-01-15T15:31:36;2.40;99.90
10083;DHT22;5080;48.528;8.078;2024-01-15T15:34:04;2.50;99.90
10083;DHT22;5080;48.528;8.078;2024-01-15T15:36:31;2.50;99.90
10083;DHT22;5080;48.528;8.078;2024-01-15T15:38:57;2.50;99.90
10083;DHT22;5080;48.528;8.078;2024-01-15T15:41:24;2.50;99.90
10083;DHT22;5080;48.528;8.078;2024-01-15T15:43:55;2.50;99.90
10083;DHT22;5080;48.528;8.078;2024-01-15T15:46:22;2.60;99.90
10083;DHT22;5080;48.528;8.078;2024-01-15T15:48:49;2.60;99.90
10083;DHT22;5080;48.528;8.078;2024-01-15T15:51:16;2.60;99.90
10083;DHT22;5080;48.528;8.078;2024-01-15T15:53:43;2.50;99.90
10083;DHT22;5080;48.528;8.078;2024-01-15T15:56:10;2.50;99.90
10083;DHT22;5080;48.528;8.078;2024-01-15T15:58:36;2.60;99.90
10083;DHT22;5080;48.528;8.078;2024-01-15T16:01:04;2.60;99.90
10083;DHT22;5080;48.528;8.078;2024-01-15T16:03:31;2.50;99.90